createdAt,value
2019-01-12T00:01:31.974Z,23.23
2019-01-12T00:04:00.028Z,21.20
2019-01-12T00:06:27.793Z,22.60
2019-01-12T00:08:55.514Z,21.53
2019-01-12T00:11:23.225Z,21.77
2019-01-12T00:13:51.931Z,20.93
2019-01-12T00:16:21.470Z,20.20
2019-01-12T00:18:49.446Z,19.13
2019-01-12T00:21:17.553Z,20.03
2019-01-12T00:23:45.317Z,20.13
2019-01-12T00:26:13.104Z,18.97
2019-01-12T00:28:41.268Z,19.37
2019-01-12T00:31:11.188Z,19.67
2019-01-12T00:33:38.963Z,20.03
2019-01-12T00:36:06.799Z,18.77
2019-01-12T00:38:34.913Z,21.83
2019-01-12T00:41:03.304Z,22.00
2019-01-12T00:43:31.126Z,20.30
2019-01-12T00:45:58.813Z,19.13
2019-01-12T00:48:26.913Z,19.63
2019-01-12T00:50:55.197Z,19.07
2019-01-12T00:53:22.934Z,19.13
2019-01-12T00:55:51.366Z,17.87
2019-01-12T00:58:19.091Z,18.83
2019-01-12T01:00:47.095Z,20.47
2019-01-12T01:03:14.904Z,21.27
2019-01-12T01:05:42.632Z,21.33
2019-01-12T01:08:10.404Z,18.93
2019-01-12T01:10:38.548Z,19.13
2019-01-12T01:13:06.601Z,19.87
2019-01-12T01:15:36.070Z,18.90
2019-01-12T01:18:03.958Z,17.77
2019-01-12T01:20:31.654Z,18.77
2019-01-12T01:22:59.337Z,19.13
2019-01-12T01:25:28.399Z,19.47
2019-01-12T01:27:56.144Z,18.40
2019-01-12T01:30:23.852Z,17.53
2019-01-12T01:32:51.561Z,21.07
2019-01-12T01:35:19.279Z,19.70
2019-01-12T01:37:47.833Z,19.20
2019-01-12T01:40:17.318Z,19.80
2019-01-12T01:42:46.023Z,19.47
2019-01-12T01:45:14.911Z,19.20
2019-01-12T01:47:43.857Z,20.40
2019-01-12T01:50:12.449Z,20.90
2019-01-12T01:52:40.601Z,19.67
2019-01-12T01:55:09.905Z,19.63
2019-01-12T01:57:38.548Z,20.03
2019-01-12T02:00:10.443Z,19.00
2019-01-12T02:02:38.119Z,19.63
2019-01-12T02:05:06.180Z,18.40
2019-01-12T02:07:34.412Z,19.40
2019-01-12T02:10:02.282Z,19.17
2019-01-12T02:12:30.372Z,20.07
2019-01-12T02:14:58.405Z,21.77
2019-01-12T02:17:26.165Z,18.83
2019-01-12T02:19:53.848Z,20.57
2019-01-12T02:22:21.950Z,21.10
2019-01-12T02:24:49.685Z,19.93
2019-01-12T02:27:17.404Z,19.07
2019-01-12T02:29:45.137Z,21.10
2019-01-12T02:32:12.805Z,18.13
2019-01-12T02:34:41.337Z,19.97
2019-01-12T02:37:09.096Z,21.17
2019-01-12T02:39:37.291Z,21.47
2019-01-12T02:42:05.054Z,21.50
2019-01-12T02:44:32.738Z,19.93
2019-01-12T02:47:00.437Z,22.00
2019-01-12T02:49:28.576Z,18.67
2019-01-12T02:51:56.317Z,19.97
2019-01-12T02:54:24.106Z,20.83
2019-01-12T02:56:52.004Z,18.93
2019-01-12T02:59:21.694Z,20.53
2019-01-12T03:01:49.386Z,19.73
2019-01-12T03:04:17.081Z,20.73
2019-01-12T03:06:44.805Z,19.83
2019-01-12T03:09:12.516Z,20.67
2019-01-12T03:11:40.207Z,18.80
2019-01-12T03:14:08.757Z,19.77
2019-01-12T03:16:36.510Z,19.07
2019-01-12T03:19:04.322Z,18.67
2019-01-12T03:21:32.003Z,17.85
2019-01-12T03:24:00.104Z,21.47
2019-01-12T03:26:27.865Z,22.03
2019-01-12T03:28:56.205Z,17.70
2019-01-12T03:31:24.482Z,18.47
2019-01-12T03:33:52.760Z,17.43
2019-01-12T03:36:20.545Z,18.07
2019-01-12T03:38:48.733Z,19.13
2019-01-12T03:41:16.442Z,19.23
2019-01-12T03:43:44.179Z,16.87
2019-01-12T03:46:12.639Z,18.77
2019-01-12T03:48:40.860Z,17.73
2019-01-12T03:51:09.083Z,17.60
2019-01-12T03:53:37.484Z,18.07
2019-01-12T03:56:05.291Z,18.37
2019-01-12T03:58:33.922Z,20.00
2019-01-12T04:01:01.725Z,16.50
2019-01-12T04:03:29.476Z,17.27
2019-01-12T04:05:57.318Z,18.87
2019-01-12T04:08:25.067Z,16.40
2019-01-12T04:10:52.758Z,20.77
2019-01-12T04:13:20.830Z,20.40
2019-01-12T04:15:48.625Z,18.53
2019-01-12T04:18:16.355Z,16.73
2019-01-12T04:20:44.101Z,16.97
2019-01-12T04:23:12.192Z,16.87
2019-01-12T04:25:39.870Z,18.40
2019-01-12T04:28:07.852Z,16.80
2019-01-12T04:30:37.034Z,16.70
2019-01-12T04:33:04.752Z,19.13
2019-01-12T04:35:32.461Z,16.70
2019-01-12T04:38:00.173Z,16.93
2019-01-12T04:40:28.297Z,17.47
2019-01-12T04:42:56.017Z,16.63
2019-01-12T04:45:23.714Z,18.17
2019-01-12T04:47:52.540Z,21.23
2019-01-12T04:50:28.290Z,19.77
2019-01-12T04:52:56.699Z,17.07
2019-01-12T04:55:25.026Z,17.57
2019-01-12T04:57:53.524Z,16.50
2019-01-12T05:00:21.238Z,17.87
2019-01-12T05:02:49.451Z,18.03
2019-01-12T05:05:17.649Z,18.07
2019-01-12T05:07:55.188Z,18.77
2019-01-12T05:10:23.815Z,18.20
2019-01-12T05:13:01.231Z,16.67
2019-01-12T05:15:30.883Z,23.30
2019-01-12T05:17:58.918Z,17.20
2019-01-12T05:20:27.354Z,18.33
2019-01-12T05:22:55.659Z,16.53
2019-01-12T05:25:24.029Z,18.90
2019-01-12T05:27:52.506Z,17.60
2019-01-12T05:30:21.606Z,17.13
2019-01-12T05:32:49.678Z,18.07
2019-01-12T05:35:17.901Z,17.87
2019-01-12T05:37:45.893Z,18.93
2019-01-12T05:40:14.644Z,16.10
2019-01-12T05:42:45.982Z,17.50
2019-01-12T05:45:14.806Z,17.20
2019-01-12T05:47:43.057Z,16.60
2019-01-12T05:50:11.788Z,17.33
2019-01-12T05:52:40.619Z,18.90
2019-01-12T05:55:09.138Z,18.27
2019-01-12T05:57:37.756Z,17.73
2019-01-12T06:00:17.597Z,17.20
2019-01-12T06:02:46.015Z,18.53
2019-01-12T06:05:14.098Z,17.47
2019-01-12T06:07:42.710Z,15.73
2019-01-12T06:10:11.122Z,16.77
2019-01-12T06:12:39.503Z,15.17
2019-01-12T06:15:08.566Z,16.83
2019-01-12T06:17:36.592Z,16.17
2019-01-12T06:20:06.247Z,15.40
2019-01-12T06:22:34.246Z,17.17
2019-01-12T06:25:02.747Z,16.30
2019-01-12T06:27:30.974Z,17.07
2019-01-12T06:29:59.411Z,16.20
2019-01-12T06:32:27.741Z,16.47
2019-01-12T06:34:57.457Z,15.67
2019-01-12T06:37:26.054Z,17.13
2019-01-12T06:39:54.385Z,15.57
2019-01-12T06:42:22.826Z,16.87
2019-01-12T06:44:51.179Z,15.17
2019-01-12T06:47:19.604Z,16.87
2019-01-12T06:49:47.641Z,15.43
2019-01-12T06:52:16.961Z,16.67
2019-01-12T06:54:45.413Z,16.33
2019-01-12T06:57:13.287Z,19.70
2019-01-12T06:59:41.594Z,19.67
2019-01-12T07:02:10.141Z,18.47
2019-01-12T07:04:38.795Z,17.87
2019-01-12T07:07:09.695Z,18.40
2019-01-12T07:09:38.446Z,18.30
2019-01-12T07:12:06.670Z,18.50
2019-01-12T07:14:34.441Z,16.60
2019-01-12T07:17:02.624Z,17.23
2019-01-12T07:19:30.702Z,16.03
2019-01-12T07:21:58.853Z,19.23
2019-01-12T07:24:26.599Z,16.87
2019-01-12T07:26:54.681Z,17.77
2019-01-12T07:29:24.822Z,17.40
2019-01-12T07:31:53.963Z,17.80
2019-01-12T07:34:22.070Z,17.37
2019-01-12T07:36:51.873Z,18.57
2019-01-12T07:39:20.073Z,18.20
2019-01-12T07:41:47.759Z,17.27
2019-01-12T07:44:18.074Z,15.70
2019-01-12T07:46:46.960Z,17.90
2019-01-12T07:49:15.333Z,16.03
2019-01-12T07:51:46.110Z,17.50
2019-01-12T07:54:13.801Z,17.17
2019-01-12T07:56:41.522Z,17.23
2019-01-12T07:59:09.512Z,15.97
2019-01-12T08:01:37.795Z,16.80
2019-01-12T08:04:05.751Z,16.17
2019-01-12T08:06:33.716Z,16.40
2019-01-12T08:09:05.035Z,17.30
2019-01-12T08:11:33.171Z,16.03
2019-01-12T08:14:03.192Z,16.00
2019-01-12T08:16:30.910Z,14.60
2019-01-12T08:18:58.803Z,15.07
2019-01-12T08:21:26.570Z,16.87
2019-01-12T08:23:54.295Z,15.33
2019-01-12T08:26:22.396Z,15.93
2019-01-12T08:28:50.929Z,15.10
2019-01-12T08:31:20.628Z,16.87
2019-01-12T08:33:48.374Z,14.87
2019-01-12T08:36:17.140Z,15.83
2019-01-12T08:38:46.229Z,14.57
2019-01-12T08:41:14.256Z,15.23
2019-01-12T08:43:42.540Z,15.27
2019-01-12T08:46:10.754Z,13.33
2019-01-12T08:48:40.570Z,13.73
2019-01-12T08:51:09.297Z,15.10
2019-01-12T08:53:37.752Z,15.40
2019-01-12T08:56:05.629Z,14.97
2019-01-12T08:58:33.985Z,16.77
2019-01-12T09:01:02.514Z,14.70
2019-01-12T09:03:30.863Z,14.17
2019-01-12T09:05:59.723Z,15.93
2019-01-12T09:08:28.822Z,14.77
2019-01-12T09:10:56.828Z,14.30
2019-01-12T09:13:27.665Z,14.03
2019-01-12T09:15:55.410Z,14.17
2019-01-12T09:18:23.162Z,15.03
2019-01-12T09:21:00.623Z,14.80
2019-01-12T09:23:28.650Z,14.60
2019-01-12T09:25:56.827Z,13.90
2019-01-12T09:28:24.591Z,15.37
2019-01-12T09:30:52.357Z,13.57
2019-01-12T09:33:21.442Z,13.90
2019-01-12T09:35:53.365Z,15.33
2019-01-12T09:38:21.153Z,13.87
2019-01-12T09:40:48.835Z,12.93
2019-01-12T09:43:16.558Z,15.00
2019-01-12T09:45:44.431Z,13.80
2019-01-12T09:48:12.138Z,12.30
2019-01-12T09:50:39.986Z,15.30
2019-01-12T09:53:07.805Z,14.03
2019-01-12T09:55:36.937Z,15.77
2019-01-12T09:58:05.071Z,17.13
2019-01-12T10:00:33.306Z,21.53
2019-01-12T10:03:01.202Z,15.93
2019-01-12T10:05:29.140Z,17.73
2019-01-12T10:07:59.855Z,15.47
2019-01-12T10:10:27.976Z,17.20
2019-01-12T10:12:55.899Z,17.47
2019-01-12T10:15:23.744Z,16.13
2019-01-12T10:17:51.451Z,17.87
2019-01-12T10:20:19.972Z,17.17
2019-01-12T10:22:47.912Z,15.00
2019-01-12T10:25:16.488Z,15.07
2019-01-12T10:27:45.413Z,15.37
2019-01-12T10:30:25.726Z,14.53
2019-01-12T10:32:53.635Z,12.07
2019-01-12T10:35:22.716Z,13.37
2019-01-12T10:37:51.891Z,12.50
2019-01-12T10:40:19.772Z,12.50
2019-01-12T10:42:47.753Z,11.17
2019-01-12T10:45:16.791Z,12.40
2019-01-12T10:47:45.910Z,12.80
2019-01-12T10:50:17.496Z,12.23
2019-01-12T10:52:45.294Z,11.93
2019-01-12T10:55:21.479Z,12.53
2019-01-12T10:57:50.137Z,12.73
2019-01-12T11:00:23.795Z,12.43
2019-01-12T11:02:56.908Z,13.40
2019-01-12T11:05:24.847Z,13.23
2019-01-12T11:07:52.725Z,12.60
2019-01-12T11:10:20.461Z,13.90
2019-01-12T11:12:49.075Z,12.80
2019-01-12T11:15:19.593Z,12.27
2019-01-12T11:17:47.446Z,13.40
2019-01-12T11:20:15.670Z,11.80
2019-01-12T11:22:44.291Z,11.80
2019-01-12T11:25:12.553Z,11.87
2019-01-12T11:27:40.226Z,12.90
2019-01-12T11:30:11.455Z,12.17
2019-01-12T11:32:39.283Z,12.30
2019-01-12T11:35:07.969Z,12.90
2019-01-12T11:37:35.678Z,12.20
2019-01-12T11:40:05.475Z,12.10
2019-01-12T11:42:33.369Z,12.27
2019-01-12T11:45:01.044Z,13.37
2019-01-12T11:47:31.363Z,12.13
2019-01-12T11:49:59.373Z,11.90
2019-01-12T11:52:28.076Z,12.53
2019-01-12T11:54:56.165Z,12.87
2019-01-12T11:57:23.961Z,12.43
2019-01-12T11:59:55.939Z,12.43
2019-01-12T12:02:26.356Z,12.60
2019-01-12T12:04:54.058Z,14.43
2019-01-12T12:07:23.315Z,14.17
2019-01-12T12:09:51.395Z,12.07
2019-01-12T12:12:21.225Z,13.20
2019-01-12T12:14:48.938Z,14.47
2019-01-12T12:17:16.861Z,13.43
2019-01-12T12:19:45.001Z,14.23
2019-01-12T12:22:13.190Z,13.23
2019-01-12T12:24:41.312Z,14.33
2019-01-12T12:27:09.049Z,13.37
2019-01-12T12:29:37.086Z,12.70
2019-01-12T12:32:07.029Z,12.90
2019-01-12T12:34:35.520Z,11.67
2019-01-12T12:37:03.832Z,13.17
2019-01-12T12:39:31.573Z,13.67
2019-01-12T12:41:59.262Z,13.00
2019-01-12T12:44:26.971Z,13.27
2019-01-12T12:46:54.717Z,13.80
2019-01-12T12:49:22.438Z,12.23
2019-01-12T12:51:50.170Z,13.77
2019-01-12T12:54:18.262Z,12.87
2019-01-12T12:56:45.933Z,13.37
2019-01-12T12:59:13.684Z,13.43
2019-01-12T13:01:42.132Z,13.23
2019-01-12T13:04:10.000Z,14.40
2019-01-12T13:06:39.608Z,14.27
2019-01-12T13:09:07.891Z,13.63
2019-01-12T13:11:35.614Z,12.80
2019-01-12T13:14:03.477Z,15.40
2019-01-12T13:16:31.582Z,15.20
2019-01-12T13:18:59.652Z,15.80
2019-01-12T13:21:27.494Z,15.17
2019-01-12T13:23:55.729Z,15.87
2019-01-12T13:26:23.487Z,15.77
2019-01-12T13:28:51.721Z,14.90
2019-01-12T13:31:19.503Z,14.10
2019-01-12T13:33:47.617Z,14.33
2019-01-12T13:36:15.302Z,13.90
2019-01-12T13:38:43.043Z,12.90
2019-01-12T13:41:11.327Z,14.93
2019-01-12T13:43:39.405Z,13.70
2019-01-12T13:46:07.605Z,13.90
2019-01-12T13:48:35.306Z,14.67
2019-01-12T13:51:03.462Z,14.93
2019-01-12T13:53:31.140Z,14.97
2019-01-12T13:55:58.958Z,13.50
2019-01-12T13:58:26.989Z,12.83
2019-01-12T14:00:54.966Z,12.73
2019-01-12T14:03:23.285Z,14.33
2019-01-12T14:05:55.725Z,18.67
2019-01-12T14:08:24.717Z,14.10
2019-01-12T14:10:53.094Z,14.37
2019-01-12T14:13:21.589Z,15.43
2019-01-12T14:15:49.719Z,14.40
2019-01-12T14:18:22.559Z,14.63
2019-01-12T14:20:48.529Z,14.37
2019-01-12T14:23:17.123Z,13.50
2019-01-12T14:25:44.884Z,13.97
2019-01-12T14:28:13.010Z,14.53
2019-01-12T14:30:41.522Z,13.07
2019-01-12T14:33:09.727Z,13.30
2019-01-12T14:35:38.086Z,13.33
2019-01-12T14:38:06.483Z,14.20
2019-01-12T14:40:35.859Z,12.83
2019-01-12T14:43:05.377Z,18.00
2019-01-12T14:45:33.790Z,16.30
2019-01-12T14:48:01.986Z,15.37
2019-01-12T14:50:29.842Z,14.87
2019-01-12T14:52:57.990Z,15.27
2019-01-12T14:55:25.675Z,14.43
2019-01-12T14:57:53.969Z,14.87
2019-01-12T15:00:24.355Z,14.93
2019-01-12T15:02:52.498Z,14.73
2019-01-12T15:05:22.319Z,13.70
2019-01-12T15:07:52.619Z,15.03
2019-01-12T15:10:24.641Z,15.27
2019-01-12T15:12:52.675Z,15.77
2019-01-12T15:15:20.775Z,14.00
2019-01-12T15:17:48.654Z,16.30
2019-01-12T15:20:18.595Z,17.03
2019-01-12T15:22:46.583Z,17.17
2019-01-12T15:25:14.659Z,17.60
2019-01-12T15:27:42.967Z,18.23
2019-01-12T15:30:16.835Z,18.00
2019-01-12T15:32:46.364Z,18.60
2019-01-12T15:35:15.130Z,17.33
2019-01-12T15:37:44.970Z,17.10
2019-01-12T15:40:14.007Z,15.53
2019-01-12T15:42:44.228Z,18.20
2019-01-12T15:45:14.678Z,17.90
2019-01-12T15:47:42.477Z,17.93
2019-01-12T15:50:16.562Z,15.20
2019-01-12T15:52:44.723Z,16.97
2019-01-12T15:55:12.589Z,15.50
2019-01-12T15:57:40.314Z,15.83
2019-01-12T16:00:12.093Z,8.77
2019-01-12T16:02:40.128Z,9.73
2019-01-12T16:05:08.511Z,9.43
2019-01-12T16:07:38.855Z,6.17
2019-01-12T16:10:07.815Z,8.60
2019-01-12T16:12:36.456Z,7.73
2019-01-12T16:15:06.617Z,7.57
2019-01-12T16:17:34.745Z,6.43
2019-01-12T16:20:03.541Z,6.37
2019-01-12T16:22:32.180Z,6.30
2019-01-12T16:25:01.836Z,5.60
2019-01-12T16:27:30.243Z,5.70
2019-01-12T16:29:58.828Z,6.67
2019-01-12T16:32:27.200Z,6.40
2019-01-12T16:34:55.553Z,5.87
2019-01-12T16:37:23.747Z,5.67
2019-01-12T16:39:52.128Z,6.17
2019-01-12T16:42:20.682Z,7.57
2019-01-12T16:44:49.529Z,6.50
2019-01-12T16:47:18.013Z,6.30
2019-01-12T16:49:46.096Z,7.30
2019-01-12T16:52:13.810Z,9.27
2019-01-12T16:54:41.981Z,8.90
2019-01-12T16:57:12.187Z,9.20
2019-01-12T16:59:40.706Z,14.70
2019-01-12T17:02:08.693Z,10.53
2019-01-12T17:04:36.718Z,11.80
2019-01-12T17:07:05.034Z,9.50
2019-01-12T17:09:33.212Z,10.63
2019-01-12T17:12:01.705Z,11.23
2019-01-12T17:14:29.458Z,14.67
2019-01-12T17:16:57.503Z,12.63
2019-01-12T17:19:25.678Z,16.17
2019-01-12T17:21:53.812Z,13.37
2019-01-12T17:24:23.809Z,13.43
2019-01-12T17:26:51.778Z,18.20
2019-01-12T17:29:19.685Z,15.87
2019-01-12T17:31:48.548Z,13.13
2019-01-12T17:34:16.846Z,10.30
2019-01-12T17:36:44.699Z,13.80
2019-01-12T17:39:13.282Z,11.80
2019-01-12T17:41:41.031Z,12.17
2019-01-12T17:44:08.768Z,12.70
2019-01-12T17:46:36.873Z,12.53
2019-01-12T17:49:05.109Z,14.20
2019-01-12T17:51:32.844Z,13.70
2019-01-12T17:54:01.938Z,14.50
2019-01-12T17:56:30.565Z,18.47
2019-01-12T17:58:58.730Z,13.17
2019-01-12T18:01:26.483Z,15.17
2019-01-12T18:03:54.738Z,15.57
2019-01-12T18:06:22.551Z,15.23
2019-01-12T18:08:51.053Z,16.27
2019-01-12T18:11:30.437Z,15.83
2019-01-12T18:13:59.073Z,16.80
2019-01-12T18:16:27.672Z,14.60
2019-01-12T18:18:55.752Z,14.37
2019-01-12T18:21:24.432Z,12.57
2019-01-12T18:23:55.790Z,14.17
2019-01-12T18:26:24.211Z,12.90
2019-01-12T18:28:52.465Z,12.93
2019-01-12T18:31:20.867Z,10.93
2019-01-12T18:33:53.235Z,13.77
2019-01-12T18:36:25.150Z,15.03
2019-01-12T18:38:55.806Z,14.20
2019-01-12T18:41:24.042Z,17.07
2019-01-12T18:43:52.546Z,20.17
2019-01-12T18:46:22.015Z,17.10
2019-01-12T18:48:52.027Z,16.97
2019-01-12T18:51:20.214Z,15.50
2019-01-12T18:53:49.138Z,16.73
2019-01-12T18:56:17.446Z,15.73
2019-01-12T18:58:45.639Z,17.13
2019-01-12T19:01:14.340Z,22.77
2019-01-12T19:03:43.825Z,17.40
2019-01-12T19:06:12.029Z,19.87
2019-01-12T19:08:40.445Z,17.53
2019-01-12T19:11:09.601Z,15.40
2019-01-12T19:13:37.341Z,14.80
2019-01-12T19:16:05.562Z,14.47
2019-01-12T19:18:33.390Z,15.03
2019-01-12T19:21:01.593Z,14.10
2019-01-12T19:23:33.306Z,14.43
2019-01-12T19:26:03.203Z,13.47
2019-01-12T19:28:31.212Z,15.43
2019-01-12T19:30:59.590Z,15.63
2019-01-12T19:33:28.859Z,14.50
2019-01-12T19:35:56.669Z,14.73
2019-01-12T19:38:24.790Z,14.23
2019-01-12T19:40:52.859Z,15.30
2019-01-12T19:43:27.458Z,15.90
2019-01-12T19:45:55.247Z,16.20
2019-01-12T19:48:23.561Z,14.83
2019-01-12T19:50:51.742Z,17.53
2019-01-12T19:53:23.178Z,15.90
2019-01-12T19:55:54.259Z,19.87
2019-01-12T19:58:22.656Z,17.10
2019-01-12T20:00:50.360Z,18.30
2019-01-12T20:03:18.115Z,19.40
2019-01-12T20:05:46.297Z,21.63
2019-01-12T20:08:22.733Z,20.00
2019-01-12T20:10:51.860Z,17.87
2019-01-12T20:13:20.774Z,21.13
2019-01-12T20:15:48.567Z,21.10
2019-01-12T20:18:17.246Z,17.07
2019-01-12T20:20:45.073Z,15.63
2019-01-12T20:23:12.890Z,14.97
2019-01-12T20:25:41.662Z,15.77
2019-01-12T20:28:18.013Z,14.20
2019-01-12T20:31:23.377Z,15.20
2019-01-12T20:34:39.636Z,16.30
2019-01-12T20:37:45.180Z,17.00
2019-01-12T20:40:56.146Z,17.10
2019-01-12T20:43:35.248Z,15.17
2019-01-12T20:46:31.942Z,14.80
2019-01-12T20:49:34.527Z,15.80
2019-01-12T20:52:29.521Z,14.43
2019-01-12T20:55:24.592Z,11.60
2019-01-12T20:58:24.827Z,12.70
2019-01-12T21:01:30.646Z,12.83
2019-01-12T21:04:33.750Z,13.30
2019-01-12T21:07:16.566Z,11.20
2019-01-12T21:10:52.926Z,12.70
2019-01-12T21:14:05.321Z,11.83
2019-01-12T21:16:54.621Z,13.87
2019-01-12T21:19:23.323Z,11.40
2019-01-12T21:21:51.751Z,11.00
2019-01-12T21:24:19.878Z,10.93
2019-01-12T21:26:47.749Z,10.00
2019-01-12T21:29:15.446Z,12.30
2019-01-12T21:31:43.587Z,12.50
2019-01-12T21:34:11.662Z,11.37
2019-01-12T21:36:40.200Z,10.53
2019-01-12T21:39:08.387Z,10.67
2019-01-12T21:41:37.098Z,11.87
2019-01-12T21:44:05.759Z,12.40
2019-01-12T21:46:35.738Z,12.53
2019-01-12T21:49:04.238Z,11.03
2019-01-12T21:51:32.938Z,9.77
2019-01-12T21:54:01.605Z,12.47
2019-01-12T21:56:29.654Z,11.67
2019-01-12T21:58:57.379Z,11.23
2019-01-12T22:01:25.101Z,10.47
2019-01-12T22:03:53.237Z,9.57
2019-01-12T22:06:21.560Z,9.17
2019-01-12T22:08:49.261Z,8.97
2019-01-12T22:11:17.424Z,10.07
2019-01-12T22:13:45.490Z,9.60
2019-01-12T22:16:13.662Z,10.10
2019-01-12T22:18:41.830Z,9.30
2019-01-12T22:21:10.642Z,9.80
2019-01-12T22:23:38.320Z,9.53
2019-01-12T22:26:06.648Z,10.60
2019-01-12T22:28:34.483Z,10.03
2019-01-12T22:31:02.283Z,10.23
2019-01-12T22:33:31.136Z,10.23
2019-01-12T22:35:59.270Z,9.97
2019-01-12T22:38:26.973Z,10.57
2019-01-12T22:40:54.707Z,9.03
2019-01-12T22:43:22.776Z,10.97
2019-01-12T22:45:51.030Z,10.40
2019-01-12T22:48:18.738Z,10.23
2019-01-12T22:50:47.197Z,9.10
2019-01-12T22:53:15.317Z,10.17
2019-01-12T22:55:43.007Z,10.57
2019-01-12T22:58:10.766Z,9.70
2019-01-12T23:01:00.688Z,10.07
2019-01-12T23:03:29.268Z,10.77
2019-01-12T23:05:57.231Z,8.53
2019-01-12T23:08:25.536Z,10.10
2019-01-12T23:10:53.613Z,9.10
2019-01-12T23:13:22.340Z,9.53
2019-01-12T23:15:50.402Z,8.60
2019-01-12T23:18:18.580Z,9.13
2019-01-12T23:20:47.009Z,10.83
2019-01-12T23:23:15.215Z,10.93
2019-01-12T23:25:43.576Z,9.97
2019-01-12T23:28:11.975Z,11.73
2019-01-12T23:30:40.718Z,9.77
2019-01-12T23:33:08.834Z,9.03
2019-01-12T23:35:36.882Z,10.77
2019-01-12T23:38:05.100Z,10.50
2019-01-12T23:40:32.804Z,9.07
2019-01-12T23:43:01.085Z,10.50
2019-01-12T23:45:28.801Z,9.70
2019-01-12T23:47:58.664Z,9.43
2019-01-12T23:50:26.764Z,9.17
2019-01-12T23:52:54.845Z,9.97
2019-01-12T23:55:23.236Z,9.00
2019-01-12T23:57:51.557Z,9.70
